sensor_id;sensor_type;location;lat;lon;timestamp;P1;durP1;ratioP1;P2;durP2;ratioP2
30697;SDS011;17448;47.200;10.902;2024-01-30T00:00:18;6.05;;;2.97;;
30697;SDS011;17448;47.200;10.902;2024-01-30T00:02:44;8.60;;;2.95;;
30697;SDS011;17448;47.200;10.902;2024-01-30T00:05:12;10.13;;;3.50;;
30697;SDS011;17448;47.200;10.902;2024-01-30T00:07:38;5.97;;;2.80;;
30697;SDS011;17448;47.200;10.902;2024-01-30T00:10:04;5.32;;;2.80;;
30697;SDS011;17448;47.200;10.902;2024-01-30T00:12:31;4.93;;;2.70;;
30697;SDS011;17448;47.200;10.902;2024-01-30T00:14:57;4.18;;;2.78;;
30697;SDS011;17448;47.200;10.902;2024-01-30T00:17:23;4.85;;;2.60;;
30697;SDS011;17448;47.200;10.902;2024-01-30T00:19:51;7.80;;;3.03;;
30697;SDS011;17448;47.200;10.902;2024-01-30T00:22:17;4.18;;;2.72;;
30697;SDS011;17448;47.200;10.902;2024-01-30T00:24:43;4.20;;;2.78;;
30697;SDS011;17448;47.200;10.902;2024-01-30T00:27:10;4.90;;;2.72;;
30697;SDS011;17448;47.200;10.902;2024-01-30T00:29:36;6.80;;;2.58;;
30697;SDS011;17448;47.200;10.902;2024-01-30T00:32:02;3.78;;;2.33;;
30697;SDS011;17448;47.200;10.902;2024-01-30T00:34:28;4.53;;;2.30;;
30697;SDS011;17448;47.200;10.902;2024-01-30T00:36:55;3.72;;;2.30;;
30697;SDS011;17448;47.200;10.902;2024-01-30T00:39:21;5.20;;;2.65;;
30697;SDS011;17448;47.200;10.902;2024-01-30T00:41:47;3.72;;;2.40;;
30697;SDS011;17448;47.200;10.902;2024-01-30T00:44:13;3.42;;;2.05;;
30697;SDS011;17448;47.200;10.902;2024-01-30T00:46:40;2.72;;;2.00;;
30697;SDS011;17448;47.200;10.902;2024-01-30T00:49:06;4.18;;;2.25;;
30697;SDS011;17448;47.200;10.902;2024-01-30T00:51:32;3.15;;;1.80;;
30697;SDS011;17448;47.200;10.902;2024-01-30T00:53:58;3.97;;;2.42;;
30697;SDS011;17448;47.200;10.902;2024-01-30T00:56:25;4.00;;;2.25;;
30697;SDS011;17448;47.200;10.902;2024-01-30T00:58:51;4.03;;;2.25;;
30697;SDS011;17448;47.200;10.902;2024-01-30T01:01:17;5.07;;;2.20;;
30697;SDS011;17448;47.200;10.902;2024-01-30T01:03:44;3.78;;;2.20;;
30697;SDS011;17448;47.200;10.902;2024-01-30T01:06:10;4.05;;;2.30;;
30697;SDS011;17448;47.200;10.902;2024-01-30T01:08:36;4.65;;;2.25;;
30697;SDS011;17448;47.200;10.902;2024-01-30T01:11:03;4.53;;;2.80;;
30697;SDS011;17448;47.200;10.902;2024-01-30T01:13:29;3.35;;;2.10;;
30697;SDS011;17448;47.200;10.902;2024-01-30T01:15:55;3.65;;;2.80;;
30697;SDS011;17448;47.200;10.902;2024-01-30T01:18:21;5.35;;;2.92;;
30697;SDS011;17448;47.200;10.902;2024-01-30T01:20:48;5.00;;;2.58;;
30697;SDS011;17448;47.200;10.902;2024-01-30T01:23:14;3.67;;;2.28;;
30697;SDS011;17448;47.200;10.902;2024-01-30T01:25:40;3.22;;;2.20;;
30697;SDS011;17448;47.200;10.902;2024-01-30T01:28:07;4.45;;;2.30;;
30697;SDS011;17448;47.200;10.902;2024-01-30T01:30:33;8.23;;;2.70;;
30697;SDS011;17448;47.200;10.902;2024-01-30T01:32:59;5.07;;;3.25;;
30697;SDS011;17448;47.200;10.902;2024-01-30T01:35:27;3.00;;;1.92;;
30697;SDS011;17448;47.200;10.902;2024-01-30T01:37:53;3.92;;;2.00;;
30697;SDS011;17448;47.200;10.902;2024-01-30T01:40:23;5.80;;;2.40;;
30697;SDS011;17448;47.200;10.902;2024-01-30T01:42:50;3.53;;;2.20;;
30697;SDS011;17448;47.200;10.902;2024-01-30T01:45:20;4.07;;;2.20;;
30697;SDS011;17448;47.200;10.902;2024-01-30T01:47:47;5.03;;;2.47;;
30697;SDS011;17448;47.200;10.902;2024-01-30T01:50:15;4.93;;;1.95;;
30697;SDS011;17448;47.200;10.902;2024-01-30T01:52:46;4.72;;;2.55;;
30697;SDS011;17448;47.200;10.902;2024-01-30T01:55:13;3.00;;;2.22;;
30697;SDS011;17448;47.200;10.902;2024-01-30T01:57:39;4.15;;;2.22;;
30697;SDS011;17448;47.200;10.902;2024-01-30T02:00:06;4.07;;;2.72;;
30697;SDS011;17448;47.200;10.902;2024-01-30T02:02:35;3.85;;;2.20;;
30697;SDS011;17448;47.200;10.902;2024-01-30T02:05:02;3.50;;;2.03;;
30697;SDS011;17448;47.200;10.902;2024-01-30T02:07:29;3.10;;;2.30;;
30697;SDS011;17448;47.200;10.902;2024-01-30T02:09:55;3.83;;;2.10;;
30697;SDS011;17448;47.200;10.902;2024-01-30T02:12:22;2.50;;;1.90;;
30697;SDS011;17448;47.200;10.902;2024-01-30T02:14:48;5.30;;;2.50;;
30697;SDS011;17448;47.200;10.902;2024-01-30T02:17:17;4.82;;;2.00;;
30697;SDS011;17448;47.200;10.902;2024-01-30T02:19:44;3.78;;;2.53;;
30697;SDS011;17448;47.200;10.902;2024-01-30T02:22:10;3.40;;;2.20;;
30697;SDS011;17448;47.200;10.902;2024-01-30T02:24:36;3.65;;;1.90;;
30697;SDS011;17448;47.200;10.902;2024-01-30T02:27:02;2.72;;;2.05;;
30697;SDS011;17448;47.200;10.902;2024-01-30T02:29:29;2.78;;;2.05;;
30697;SDS011;17448;47.200;10.902;2024-01-30T02:31:55;3.40;;;1.70;;
30697;SDS011;17448;47.200;10.902;2024-01-30T02:34:21;4.05;;;1.90;;
30697;SDS011;17448;47.200;10.902;2024-01-30T02:36:47;2.67;;;2.00;;
30697;SDS011;17448;47.200;10.902;2024-01-30T02:39:14;3.58;;;2.42;;
30697;SDS011;17448;47.200;10.902;2024-01-30T02:41:40;2.67;;;1.60;;
30697;SDS011;17448;47.200;10.902;2024-01-30T02:44:06;2.65;;;1.90;;
30697;SDS011;17448;47.200;10.902;2024-01-30T02:46:32;4.72;;;1.80;;
30697;SDS011;17448;47.200;10.902;2024-01-30T02:48:59;2.63;;;1.70;;
30697;SDS011;17448;47.200;10.902;2024-01-30T02:51:25;1.65;;;1.40;;
30697;SDS011;17448;47.200;10.902;2024-01-30T02:53:51;2.08;;;1.67;;
30697;SDS011;17448;47.200;10.902;2024-01-30T02:56:17;2.00;;;1.80;;
30697;SDS011;17448;47.200;10.902;2024-01-30T02:58:44;5.85;;;1.70;;
30697;SDS011;17448;47.200;10.902;2024-01-30T03:01:10;1.83;;;1.42;;
30697;SDS011;17448;47.200;10.902;2024-01-30T03:03:36;1.67;;;1.50;;
30697;SDS011;17448;47.200;10.902;2024-01-30T03:06:05;3.60;;;1.95;;
30697;SDS011;17448;47.200;10.902;2024-01-30T03:08:31;3.63;;;1.55;;
30697;SDS011;17448;47.200;10.902;2024-01-30T03:10:57;2.33;;;1.40;;
30697;SDS011;17448;47.200;10.902;2024-01-30T03:13:24;3.35;;;2.03;;
30697;SDS011;17448;47.200;10.902;2024-01-30T03:15:50;3.53;;;1.98;;
30697;SDS011;17448;47.200;10.902;2024-01-30T03:18:17;2.47;;;1.80;;
30697;SDS011;17448;47.200;10.902;2024-01-30T03:20:43;5.78;;;1.85;;
30697;SDS011;17448;47.200;10.902;2024-01-30T03:23:09;2.60;;;1.45;;
30697;SDS011;17448;47.200;10.902;2024-01-30T03:25:36;3.03;;;1.90;;
30697;SDS011;17448;47.200;10.902;2024-01-30T03:28:02;5.28;;;1.90;;
30697;SDS011;17448;47.200;10.902;2024-01-30T03:30:28;3.58;;;1.85;;
30697;SDS011;17448;47.200;10.902;2024-01-30T03:32:55;2.35;;;1.52;;
30697;SDS011;17448;47.200;10.902;2024-01-30T03:35:21;1.80;;;1.40;;
30697;SDS011;17448;47.200;10.902;2024-01-30T03:37:47;1.98;;;1.60;;
30697;SDS011;17448;47.200;10.902;2024-01-30T03:40:13;3.40;;;1.50;;
30697;SDS011;17448;47.200;10.902;2024-01-30T03:42:40;5.28;;;1.48;;
30697;SDS011;17448;47.200;10.902;2024-01-30T03:45:06;3.63;;;1.38;;
30697;SDS011;17448;47.200;10.902;2024-01-30T03:47:33;3.33;;;1.42;;
30697;SDS011;17448;47.200;10.902;2024-01-30T03:49:59;3.88;;;1.58;;
30697;SDS011;17448;47.200;10.902;2024-01-30T03:52:25;2.65;;;1.40;;
30697;SDS011;17448;47.200;10.902;2024-01-30T03:54:52;4.15;;;1.70;;
30697;SDS011;17448;47.200;10.902;2024-01-30T03:57:18;2.92;;;1.60;;
30697;SDS011;17448;47.200;10.902;2024-01-30T03:59:44;3.28;;;1.55;;
30697;SDS011;17448;47.200;10.902;2024-01-30T04:02:10;3.63;;;1.80;;
30697;SDS011;17448;47.200;10.902;2024-01-30T04:04:37;3.95;;;1.90;;
30697;SDS011;17448;47.200;10.902;2024-01-30T04:07:03;2.55;;;1.55;;
30697;SDS011;17448;47.200;10.902;2024-01-30T04:09:30;2.92;;;1.90;;
30697;SDS011;17448;47.200;10.902;2024-01-30T04:11:57;3.90;;;1.67;;
30697;SDS011;17448;47.200;10.902;2024-01-30T04:14:24;5.40;;;1.92;;
30697;SDS011;17448;47.200;10.902;2024-01-30T04:16:50;3.05;;;1.70;;
30697;SDS011;17448;47.200;10.902;2024-01-30T04:19:16;3.17;;;2.05;;
30697;SDS011;17448;47.200;10.902;2024-01-30T04:21:42;2.67;;;1.77;;
30697;SDS011;17448;47.200;10.902;2024-01-30T04:24:09;2.90;;;1.90;;
30697;SDS011;17448;47.200;10.902;2024-01-30T04:26:35;3.38;;;2.13;;
30697;SDS011;17448;47.200;10.902;2024-01-30T04:29:02;2.50;;;1.85;;
30697;SDS011;17448;47.200;10.902;2024-01-30T04:31:28;4.00;;;2.20;;
30697;SDS011;17448;47.200;10.902;2024-01-30T04:33:54;3.38;;;2.30;;
30697;SDS011;17448;47.200;10.902;2024-01-30T04:36:20;5.53;;;2.13;;
30697;SDS011;17448;47.200;10.902;2024-01-30T04:38:47;3.08;;;1.80;;
30697;SDS011;17448;47.200;10.902;2024-01-30T04:41:13;3.95;;;2.40;;
30697;SDS011;17448;47.200;10.902;2024-01-30T04:43:39;4.15;;;2.38;;
30697;SDS011;17448;47.200;10.902;2024-01-30T04:46:06;3.55;;;2.25;;
30697;SDS011;17448;47.200;10.902;2024-01-30T04:48:32;3.38;;;2.08;;
30697;SDS011;17448;47.200;10.902;2024-01-30T04:50:58;3.03;;;1.80;;
30697;SDS011;17448;47.200;10.902;2024-01-30T04:53:29;3.65;;;2.03;;
30697;SDS011;17448;47.200;10.902;2024-01-30T04:55:56;3.08;;;1.95;;
30697;SDS011;17448;47.200;10.902;2024-01-30T04:58:22;4.25;;;2.38;;
30697;SDS011;17448;47.200;10.902;2024-01-30T05:00:48;3.47;;;2.28;;
30697;SDS011;17448;47.200;10.902;2024-01-30T05:03:17;4.70;;;2.88;;
30697;SDS011;17448;47.200;10.902;2024-01-30T05:05:43;4.97;;;2.33;;
30697;SDS011;17448;47.200;10.902;2024-01-30T05:08:09;3.22;;;2.33;;
30697;SDS011;17448;47.200;10.902;2024-01-30T05:10:36;5.25;;;2.30;;
30697;SDS011;17448;47.200;10.902;2024-01-30T05:13:02;3.47;;;2.45;;
30697;SDS011;17448;47.200;10.902;2024-01-30T05:15:28;5.63;;;2.75;;
30697;SDS011;17448;47.200;10.902;2024-01-30T05:17:55;3.88;;;2.25;;
30697;SDS011;17448;47.200;10.902;2024-01-30T05:20:21;4.35;;;1.77;;
30697;SDS011;17448;47.200;10.902;2024-01-30T05:22:47;4.20;;;2.50;;
30697;SDS011;17448;47.200;10.902;2024-01-30T05:25:14;4.82;;;2.60;;
30697;SDS011;17448;47.200;10.902;2024-01-30T05:27:40;6.28;;;2.72;;
30697;SDS011;17448;47.200;10.902;2024-01-30T05:30:06;4.43;;;3.00;;
30697;SDS011;17448;47.200;10.902;2024-01-30T05:32:33;5.13;;;2.78;;
30697;SDS011;17448;47.200;10.902;2024-01-30T05:34:59;4.18;;;2.70;;
30697;SDS011;17448;47.200;10.902;2024-01-30T05:37:25;7.45;;;2.92;;
30697;SDS011;17448;47.200;10.902;2024-01-30T05:39:52;4.18;;;2.70;;
30697;SDS011;17448;47.200;10.902;2024-01-30T05:42:18;5.35;;;2.50;;
30697;SDS011;17448;47.200;10.902;2024-01-30T05:44:44;5.45;;;2.90;;
30697;SDS011;17448;47.200;10.902;2024-01-30T05:47:10;4.22;;;2.75;;
30697;SDS011;17448;47.200;10.902;2024-01-30T05:49:37;5.05;;;2.67;;
30697;SDS011;17448;47.200;10.902;2024-01-30T05:52:04;9.65;;;2.47;;
30697;SDS011;17448;47.200;10.902;2024-01-30T05:54:30;6.47;;;3.40;;
30697;SDS011;17448;47.200;10.902;2024-01-30T05:56:57;3.38;;;2.40;;
30697;SDS011;17448;47.200;10.902;2024-01-30T05:59:23;6.05;;;2.40;;
30697;SDS011;17448;47.200;10.902;2024-01-30T06:01:49;7.20;;;3.15;;
30697;SDS011;17448;47.200;10.902;2024-01-30T06:04:15;13.85;;;3.72;;
30697;SDS011;17448;47.200;10.902;2024-01-30T06:06:41;10.05;;;4.15;;
30697;SDS011;17448;47.200;10.902;2024-01-30T06:09:08;8.23;;;3.60;;
30697;SDS011;17448;47.200;10.902;2024-01-30T06:11:34;8.82;;;3.60;;
30697;SDS011;17448;47.200;10.902;2024-01-30T06:14:01;5.50;;;3.13;;
30697;SDS011;17448;47.200;10.902;2024-01-30T06:16:27;7.25;;;3.95;;
30697;SDS011;17448;47.200;10.902;2024-01-30T06:18:57;10.02;;;4.03;;
30697;SDS011;17448;47.200;10.902;2024-01-30T06:21:24;9.02;;;3.70;;
30697;SDS011;17448;47.200;10.902;2024-01-30T06:23:51;8.63;;;4.25;;
30697;SDS011;17448;47.200;10.902;2024-01-30T06:26:17;8.05;;;3.95;;
30697;SDS011;17448;47.200;10.902;2024-01-30T06:28:43;9.43;;;4.45;;
30697;SDS011;17448;47.200;10.902;2024-01-30T06:31:09;9.63;;;4.93;;
30697;SDS011;17448;47.200;10.902;2024-01-30T06:33:36;10.93;;;5.03;;
30697;SDS011;17448;47.200;10.902;2024-01-30T06:36:02;10.90;;;5.35;;
30697;SDS011;17448;47.200;10.902;2024-01-30T06:38:28;9.13;;;4.22;;
30697;SDS011;17448;47.200;10.902;2024-01-30T06:40:55;10.00;;;4.90;;
30697;SDS011;17448;47.200;10.902;2024-01-30T06:43:21;8.35;;;4.55;;
30697;SDS011;17448;47.200;10.902;2024-01-30T06:45:48;8.80;;;5.55;;
30697;SDS011;17448;47.200;10.902;2024-01-30T06:48:14;20.25;;;5.80;;
30697;SDS011;17448;47.200;10.902;2024-01-30T06:50:41;9.80;;;4.30;;
30697;SDS011;17448;47.200;10.902;2024-01-30T06:53:07;9.43;;;4.75;;
30697;SDS011;17448;47.200;10.902;2024-01-30T06:55:33;8.48;;;4.40;;
30697;SDS011;17448;47.200;10.902;2024-01-30T06:57:59;8.48;;;4.57;;
30697;SDS011;17448;47.200;10.902;2024-01-30T07:00:25;10.02;;;4.68;;
30697;SDS011;17448;47.200;10.902;2024-01-30T07:02:52;10.18;;;4.70;;
30697;SDS011;17448;47.200;10.902;2024-01-30T07:05:18;7.40;;;4.50;;
30697;SDS011;17448;47.200;10.902;2024-01-30T07:07:44;6.57;;;4.10;;
30697;SDS011;17448;47.200;10.902;2024-01-30T07:10:11;8.50;;;4.38;;
30697;SDS011;17448;47.200;10.902;2024-01-30T07:12:37;8.70;;;3.53;;
30697;SDS011;17448;47.200;10.902;2024-01-30T07:15:03;5.97;;;3.50;;
30697;SDS011;17448;47.200;10.902;2024-01-30T07:17:33;7.18;;;4.32;;
30697;SDS011;17448;47.200;10.902;2024-01-30T07:19:59;7.18;;;4.40;;
30697;SDS011;17448;47.200;10.902;2024-01-30T07:22:25;11.68;;;6.00;;
30697;SDS011;17448;47.200;10.902;2024-01-30T07:24:52;12.82;;;6.20;;
30697;SDS011;17448;47.200;10.902;2024-01-30T07:27:18;16.10;;;5.40;;
30697;SDS011;17448;47.200;10.902;2024-01-30T07:29:44;11.05;;;5.10;;
30697;SDS011;17448;47.200;10.902;2024-01-30T07:32:11;6.85;;;4.15;;
30697;SDS011;17448;47.200;10.902;2024-01-30T07:34:37;8.30;;;3.80;;
30697;SDS011;17448;47.200;10.902;2024-01-30T07:37:03;8.43;;;3.95;;
30697;SDS011;17448;47.200;10.902;2024-01-30T07:39:29;8.23;;;4.45;;
30697;SDS011;17448;47.200;10.902;2024-01-30T07:41:55;9.20;;;4.18;;
30697;SDS011;17448;47.200;10.902;2024-01-30T07:44:22;9.88;;;5.88;;
30697;SDS011;17448;47.200;10.902;2024-01-30T07:46:48;9.63;;;4.30;;
30697;SDS011;17448;47.200;10.902;2024-01-30T07:49:15;15.35;;;4.95;;
30697;SDS011;17448;47.200;10.902;2024-01-30T07:51:41;7.82;;;4.90;;
30697;SDS011;17448;47.200;10.902;2024-01-30T07:54:14;11.93;;;6.30;;
30697;SDS011;17448;47.200;10.902;2024-01-30T07:56:40;11.30;;;6.82;;
30697;SDS011;17448;47.200;10.902;2024-01-30T07:59:10;11.90;;;7.18;;
30697;SDS011;17448;47.200;10.902;2024-01-30T08:01:37;13.70;;;5.68;;
30697;SDS011;17448;47.200;10.902;2024-01-30T08:04:03;13.60;;;6.35;;
30697;SDS011;17448;47.200;10.902;2024-01-30T08:06:29;11.98;;;5.93;;
30697;SDS011;17448;47.200;10.902;2024-01-30T08:08:55;9.63;;;5.80;;
30697;SDS011;17448;47.200;10.902;2024-01-30T08:11:24;10.73;;;4.97;;
30697;SDS011;17448;47.200;10.902;2024-01-30T08:13:52;9.25;;;4.57;;
30697;SDS011;17448;47.200;10.902;2024-01-30T08:16:18;12.07;;;5.05;;
30697;SDS011;17448;47.200;10.902;2024-01-30T08:18:44;10.85;;;5.38;;
30697;SDS011;17448;47.200;10.902;2024-01-30T08:21:11;9.40;;;5.05;;
30697;SDS011;17448;47.200;10.902;2024-01-30T08:23:40;12.57;;;5.32;;
30697;SDS011;17448;47.200;10.902;2024-01-30T08:26:06;8.77;;;4.85;;
30697;SDS011;17448;47.200;10.902;2024-01-30T08:28:32;7.53;;;4.93;;
30697;SDS011;17448;47.200;10.902;2024-01-30T08:30:59;10.05;;;5.15;;
30697;SDS011;17448;47.200;10.902;2024-01-30T08:33:25;8.73;;;4.85;;
30697;SDS011;17448;47.200;10.902;2024-01-30T08:35:51;13.60;;;4.70;;
30697;SDS011;17448;47.200;10.902;2024-01-30T08:38:18;16.58;;;5.35;;
30697;SDS011;17448;47.200;10.902;2024-01-30T08:40:44;16.30;;;7.28;;
30697;SDS011;17448;47.200;10.902;2024-01-30T08:43:10;16.92;;;8.25;;
30697;SDS011;17448;47.200;10.902;2024-01-30T08:45:37;10.82;;;6.90;;
30697;SDS011;17448;47.200;10.902;2024-01-30T08:48:03;14.10;;;7.63;;
30697;SDS011;17448;47.200;10.902;2024-01-30T08:50:30;15.73;;;6.60;;
30697;SDS011;17448;47.200;10.902;2024-01-30T08:52:56;14.00;;;7.32;;
30697;SDS011;17448;47.200;10.902;2024-01-30T08:55:22;15.38;;;6.40;;
30697;SDS011;17448;47.200;10.902;2024-01-30T08:57:49;12.13;;;7.35;;
30697;SDS011;17448;47.200;10.902;2024-01-30T09:00:15;14.38;;;6.43;;
30697;SDS011;17448;47.200;10.902;2024-01-30T09:02:41;16.83;;;6.70;;
30697;SDS011;17448;47.200;10.902;2024-01-30T09:05:08;14.85;;;4.78;;
30697;SDS011;17448;47.200;10.902;2024-01-30T09:07:34;7.78;;;3.80;;
30697;SDS011;17448;47.200;10.902;2024-01-30T09:10:00;8.35;;;4.85;;
30697;SDS011;17448;47.200;10.902;2024-01-30T09:12:27;12.57;;;6.63;;
30697;SDS011;17448;47.200;10.902;2024-01-30T09:14:53;14.75;;;5.65;;
30697;SDS011;17448;47.200;10.902;2024-01-30T09:17:20;29.67;;;6.72;;
30697;SDS011;17448;47.200;10.902;2024-01-30T09:19:46;12.98;;;6.15;;
30697;SDS011;17448;47.200;10.902;2024-01-30T09:22:12;13.88;;;6.15;;
30697;SDS011;17448;47.200;10.902;2024-01-30T09:24:39;11.30;;;5.40;;
30697;SDS011;17448;47.200;10.902;2024-01-30T09:27:06;31.75;;;10.85;;
30697;SDS011;17448;47.200;10.902;2024-01-30T09:29:32;18.45;;;8.80;;
30697;SDS011;17448;47.200;10.902;2024-01-30T09:32:01;13.75;;;6.60;;
30697;SDS011;17448;47.200;10.902;2024-01-30T09:34:27;10.40;;;6.05;;
30697;SDS011;17448;47.200;10.902;2024-01-30T09:36:53;10.45;;;4.22;;
30697;SDS011;17448;47.200;10.902;2024-01-30T09:39:19;19.33;;;5.75;;
30697;SDS011;17448;47.200;10.902;2024-01-30T09:41:49;11.27;;;6.75;;
30697;SDS011;17448;47.200;10.902;2024-01-30T09:44:18;16.83;;;7.65;;
30697;SDS011;17448;47.200;10.902;2024-01-30T09:46:46;22.95;;;7.95;;
30697;SDS011;17448;47.200;10.902;2024-01-30T09:49:13;25.42;;;7.95;;
30697;SDS011;17448;47.200;10.902;2024-01-30T09:51:39;27.65;;;8.60;;
30697;SDS011;17448;47.200;10.902;2024-01-30T09:54:07;19.27;;;8.07;;
30697;SDS011;17448;47.200;10.902;2024-01-30T09:56:34;14.95;;;7.82;;
30697;SDS011;17448;47.200;10.902;2024-01-30T09:59:00;16.00;;;8.80;;
30697;SDS011;17448;47.200;10.902;2024-01-30T10:01:26;15.88;;;5.40;;
30697;SDS011;17448;47.200;10.902;2024-01-30T10:03:53;22.95;;;5.40;;
30697;SDS011;17448;47.200;10.902;2024-01-30T10:06:19;10.63;;;4.63;;
30697;SDS011;17448;47.200;10.902;2024-01-30T10:08:46;20.83;;;5.88;;
30697;SDS011;17448;47.200;10.902;2024-01-30T10:11:12;12.18;;;4.75;;
30697;SDS011;17448;47.200;10.902;2024-01-30T10:13:39;14.20;;;4.72;;
30697;SDS011;17448;47.200;10.902;2024-01-30T10:16:05;14.02;;;3.50;;
30697;SDS011;17448;47.200;10.902;2024-01-30T10:18:33;19.45;;;3.80;;
30697;SDS011;17448;47.200;10.902;2024-01-30T10:20:59;16.05;;;3.95;;
30697;SDS011;17448;47.200;10.902;2024-01-30T10:23:26;20.58;;;4.43;;
30697;SDS011;17448;47.200;10.902;2024-01-30T10:25:52;28.30;;;4.65;;
30697;SDS011;17448;47.200;10.902;2024-01-30T10:28:18;10.48;;;2.92;;
30697;SDS011;17448;47.200;10.902;2024-01-30T10:30:45;17.45;;;3.35;;
30697;SDS011;17448;47.200;10.902;2024-01-30T10:33:11;15.75;;;2.88;;
30697;SDS011;17448;47.200;10.902;2024-01-30T10:35:38;7.97;;;2.50;;
30697;SDS011;17448;47.200;10.902;2024-01-30T10:38:04;5.80;;;2.08;;
30697;SDS011;17448;47.200;10.902;2024-01-30T10:40:32;18.38;;;3.20;;
30697;SDS011;17448;47.200;10.902;2024-01-30T10:43:00;54.58;;;7.50;;
30697;SDS011;17448;47.200;10.902;2024-01-30T10:45:29;11.18;;;2.38;;
30697;SDS011;17448;47.200;10.902;2024-01-30T10:47:56;21.08;;;4.10;;
30697;SDS011;17448;47.200;10.902;2024-01-30T10:50:24;7.15;;;2.10;;
30697;SDS011;17448;47.200;10.902;2024-01-30T10:52:51;16.55;;;3.13;;
30697;SDS011;17448;47.200;10.902;2024-01-30T10:55:18;6.65;;;2.70;;
30697;SDS011;17448;47.200;10.902;2024-01-30T10:57:44;3.60;;;2.10;;
30697;SDS011;17448;47.200;10.902;2024-01-30T11:00:11;15.73;;;3.30;;
30697;SDS011;17448;47.200;10.902;2024-01-30T11:02:38;22.52;;;2.90;;
30697;SDS011;17448;47.200;10.902;2024-01-30T11:05:05;8.50;;;3.40;;
30697;SDS011;17448;47.200;10.902;2024-01-30T11:07:33;4.38;;;1.90;;
30697;SDS011;17448;47.200;10.902;2024-01-30T11:12:26;4.60;;;2.05;;
30697;SDS011;17448;47.200;10.902;2024-01-30T11:17:39;11.50;;;2.35;;
30697;SDS011;17448;47.200;10.902;2024-01-30T11:20:09;2.55;;;1.65;;
30697;SDS011;17448;47.200;10.902;2024-01-30T11:22:35;4.57;;;1.83;;
30697;SDS011;17448;47.200;10.902;2024-01-30T11:25:02;3.72;;;2.08;;
30697;SDS011;17448;47.200;10.902;2024-01-30T11:27:29;8.75;;;2.13;;
30697;SDS011;17448;47.200;10.902;2024-01-30T11:30:03;11.90;;;3.45;;
30697;SDS011;17448;47.200;10.902;2024-01-30T11:32:30;5.88;;;1.98;;
30697;SDS011;17448;47.200;10.902;2024-01-30T11:34:56;5.45;;;2.17;;
30697;SDS011;17448;47.200;10.902;2024-01-30T11:37:25;6.25;;;2.20;;
30697;SDS011;17448;47.200;10.902;2024-01-30T11:39:54;10.38;;;2.45;;
30697;SDS011;17448;47.200;10.902;2024-01-30T11:42:23;3.50;;;1.90;;
30697;SDS011;17448;47.200;10.902;2024-01-30T11:44:52;3.65;;;2.05;;
30697;SDS011;17448;47.200;10.902;2024-01-30T11:47:19;10.48;;;2.10;;
30697;SDS011;17448;47.200;10.902;2024-01-30T11:49:45;27.20;;;2.40;;
30697;SDS011;17448;47.200;10.902;2024-01-30T11:52:12;6.55;;;1.67;;
30697;SDS011;17448;47.200;10.902;2024-01-30T11:54:39;14.98;;;3.50;;
30697;SDS011;17448;47.200;10.902;2024-01-30T11:57:06;11.40;;;3.10;;
30697;SDS011;17448;47.200;10.902;2024-01-30T11:59:32;3.33;;;1.38;;
30697;SDS011;17448;47.200;10.902;2024-01-30T12:01:58;15.70;;;2.33;;
30697;SDS011;17448;47.200;10.902;2024-01-30T12:04:28;2.20;;;1.02;;
30697;SDS011;17448;47.200;10.902;2024-01-30T12:06:54;1.95;;;1.50;;
30697;SDS011;17448;47.200;10.902;2024-01-30T12:09:21;8.10;;;1.83;;
30697;SDS011;17448;47.200;10.902;2024-01-30T12:11:48;20.17;;;2.80;;
30697;SDS011;17448;47.200;10.902;2024-01-30T12:14:17;6.32;;;1.70;;
30697;SDS011;17448;47.200;10.902;2024-01-30T12:16:48;2.00;;;1.80;;
30697;SDS011;17448;47.200;10.902;2024-01-30T12:19:22;10.63;;;2.08;;
30697;SDS011;17448;47.200;10.902;2024-01-30T12:21:53;14.43;;;3.13;;
30697;SDS011;17448;47.200;10.902;2024-01-30T12:24:21;85.05;;;8.38;;
30697;SDS011;17448;47.200;10.902;2024-01-30T12:26:48;31.17;;;4.10;;
30697;SDS011;17448;47.200;10.902;2024-01-30T12:29:14;45.08;;;4.45;;
30697;SDS011;17448;47.200;10.902;2024-01-30T12:31:41;20.23;;;2.38;;
30697;SDS011;17448;47.200;10.902;2024-01-30T12:34:09;9.23;;;2.13;;
30697;SDS011;17448;47.200;10.902;2024-01-30T12:36:37;12.13;;;2.08;;
30697;SDS011;17448;47.200;10.902;2024-01-30T12:39:05;6.07;;;1.92;;
30697;SDS011;17448;47.200;10.902;2024-01-30T12:41:31;27.10;;;3.92;;
30697;SDS011;17448;47.200;10.902;2024-01-30T12:43:58;10.48;;;2.42;;
30697;SDS011;17448;47.200;10.902;2024-01-30T12:46:27;13.32;;;2.25;;
30697;SDS011;17448;47.200;10.902;2024-01-30T12:48:57;14.48;;;3.00;;
30697;SDS011;17448;47.200;10.902;2024-01-30T12:51:23;13.80;;;3.05;;
30697;SDS011;17448;47.200;10.902;2024-01-30T12:53:50;27.83;;;3.67;;
30697;SDS011;17448;47.200;10.902;2024-01-30T12:56:16;11.50;;;2.78;;
30697;SDS011;17448;47.200;10.902;2024-01-30T12:58:42;26.38;;;3.83;;
30697;SDS011;17448;47.200;10.902;2024-01-30T13:01:09;19.13;;;2.60;;
30697;SDS011;17448;47.200;10.902;2024-01-30T13:03:35;29.08;;;4.63;;
30697;SDS011;17448;47.200;10.902;2024-01-30T13:06:02;43.33;;;4.25;;
30697;SDS011;17448;47.200;10.902;2024-01-30T13:08:28;17.67;;;2.42;;
30697;SDS011;17448;47.200;10.902;2024-01-30T13:10:54;28.33;;;3.78;;
30697;SDS011;17448;47.200;10.902;2024-01-30T13:13:21;26.50;;;3.20;;
30697;SDS011;17448;47.200;10.902;2024-01-30T13:15:47;8.05;;;2.05;;
30697;SDS011;17448;47.200;10.902;2024-01-30T13:18:14;15.35;;;2.88;;
30697;SDS011;17448;47.200;10.902;2024-01-30T13:20:40;31.35;;;3.83;;
30697;SDS011;17448;47.200;10.902;2024-01-30T13:23:06;24.17;;;3.75;;
30697;SDS011;17448;47.200;10.902;2024-01-30T13:25:33;15.20;;;2.80;;
30697;SDS011;17448;47.200;10.902;2024-01-30T13:27:59;115.75;;;10.35;;
30697;SDS011;17448;47.200;10.902;2024-01-30T13:30:26;20.30;;;4.20;;
30697;SDS011;17448;47.200;10.902;2024-01-30T13:32:52;11.23;;;1.63;;
30697;SDS011;17448;47.200;10.902;2024-01-30T13:35:19;15.40;;;2.10;;
30697;SDS011;17448;47.200;10.902;2024-01-30T13:37:46;38.65;;;4.70;;
30697;SDS011;17448;47.200;10.902;2024-01-30T13:40:13;36.40;;;4.45;;
30697;SDS011;17448;47.200;10.902;2024-01-30T13:42:41;35.20;;;3.88;;
30697;SDS011;17448;47.200;10.902;2024-01-30T13:45:07;18.85;;;2.97;;
30697;SDS011;17448;47.200;10.902;2024-01-30T13:47:35;16.88;;;2.95;;
30697;SDS011;17448;47.200;10.902;2024-01-30T13:50:01;34.47;;;3.35;;
30697;SDS011;17448;47.200;10.902;2024-01-30T13:52:28;11.10;;;2.03;;
30697;SDS011;17448;47.200;10.902;2024-01-30T13:54:54;21.48;;;2.92;;
30697;SDS011;17448;47.200;10.902;2024-01-30T13:57:20;31.50;;;4.38;;
30697;SDS011;17448;47.200;10.902;2024-01-30T13:59:47;10.63;;;2.20;;
30697;SDS011;17448;47.200;10.902;2024-01-30T14:02:13;9.45;;;1.80;;
30697;SDS011;17448;47.200;10.902;2024-01-30T14:04:39;19.75;;;5.50;;
30697;SDS011;17448;47.200;10.902;2024-01-30T14:07:05;22.75;;;2.63;;
30697;SDS011;17448;47.200;10.902;2024-01-30T14:09:32;16.58;;;2.60;;
30697;SDS011;17448;47.200;10.902;2024-01-30T14:11:59;10.60;;;2.60;;
30697;SDS011;17448;47.200;10.902;2024-01-30T14:14:25;33.10;;;4.43;;
30697;SDS011;17448;47.200;10.902;2024-01-30T14:16:51;17.77;;;5.22;;
30697;SDS011;17448;47.200;10.902;2024-01-30T14:19:18;26.15;;;9.82;;
30697;SDS011;17448;47.200;10.902;2024-01-30T14:21:44;36.70;;;16.05;;
30697;SDS011;17448;47.200;10.902;2024-01-30T14:24:10;61.67;;;23.77;;
30697;SDS011;17448;47.200;10.902;2024-01-30T14:26:36;74.65;;;29.52;;
30697;SDS011;17448;47.200;10.902;2024-01-30T14:29:03;30.95;;;13.90;;